sensor_id;sensor_type;location;lat;lon;timestamp;P1;durP1;ratioP1;P2;durP2;ratioP2
55455;SDS011;63021;52.836;6.376;2023-04-03T00:00:29;1.75;;;1.40;;
55455;SDS011;63021;52.836;6.376;2023-04-03T00:02:55;2.15;;;1.67;;
55455;SDS011;63021;52.836;6.376;2023-04-03T00:05:20;5.25;;;1.90;;
55455;SDS011;63021;52.836;6.376;2023-04-03T00:07:46;2.65;;;1.80;;
55455;SDS011;63021;52.836;6.376;2023-04-03T00:10:11;1.70;;;1.60;;
55455;SDS011;63021;52.836;6.376;2023-04-03T00:12:38;2.70;;;2.53;;
55455;SDS011;63021;52.836;6.376;2023-04-03T00:15:04;2.20;;;1.75;;
55455;SDS011;63021;52.836;6.376;2023-04-03T00:17:30;1.58;;;1.48;;
55455;SDS011;63021;52.836;6.376;2023-04-03T00:19:55;3.70;;;1.73;;
55455;SDS011;63021;52.836;6.376;2023-04-03T00:22:21;5.30;;;1.65;;
55455;SDS011;63021;52.836;6.376;2023-04-03T00:24:46;2.17;;;2.03;;
55455;SDS011;63021;52.836;6.376;2023-04-03T00:27:11;2.65;;;1.55;;
55455;SDS011;63021;52.836;6.376;2023-04-03T00:29:37;1.70;;;1.60;;
55455;SDS011;63021;52.836;6.376;2023-04-03T00:32:02;2.80;;;1.60;;
55455;SDS011;63021;52.836;6.376;2023-04-03T00:34:27;3.83;;;1.63;;
55455;SDS011;63021;52.836;6.376;2023-04-03T00:36:53;2.20;;;1.60;;
55455;SDS011;63021;52.836;6.376;2023-04-03T00:39:18;2.45;;;1.75;;
55455;SDS011;63021;52.836;6.376;2023-04-03T00:41:44;2.42;;;2.22;;
55455;SDS011;63021;52.836;6.376;2023-04-03T00:44:19;2.78;;;1.67;;
55455;SDS011;63021;52.836;6.376;2023-04-03T00:47:05;3.25;;;1.80;;
55455;SDS011;63021;52.836;6.376;2023-04-03T00:49:33;2.53;;;1.75;;
55455;SDS011;63021;52.836;6.376;2023-04-03T00:52:00;1.98;;;1.60;;
55455;SDS011;63021;52.836;6.376;2023-04-03T00:54:26;5.13;;;1.80;;
55455;SDS011;63021;52.836;6.376;2023-04-03T00:56:51;2.17;;;1.50;;
55455;SDS011;63021;52.836;6.376;2023-04-03T00:59:21;1.58;;;1.48;;
55455;SDS011;63021;52.836;6.376;2023-04-03T01:01:52;4.50;;;2.13;;
55455;SDS011;63021;52.836;6.376;2023-04-03T01:06:52;3.08;;;1.70;;
55455;SDS011;63021;52.836;6.376;2023-04-03T01:09:17;2.90;;;1.52;;
55455;SDS011;63021;52.836;6.376;2023-04-03T01:11:42;4.10;;;2.03;;
55455;SDS011;63021;52.836;6.376;2023-04-03T01:14:08;2.25;;;2.05;;
55455;SDS011;63021;52.836;6.376;2023-04-03T01:16:33;2.67;;;1.63;;
55455;SDS011;63021;52.836;6.376;2023-04-03T01:19:00;4.95;;;2.03;;
55455;SDS011;63021;52.836;6.376;2023-04-03T01:26:45;1.95;;;1.55;;
55455;SDS011;63021;52.836;6.376;2023-04-03T01:29:10;2.92;;;1.80;;
55455;SDS011;63021;52.836;6.376;2023-04-03T01:34:14;3.42;;;1.88;;
55455;SDS011;63021;52.836;6.376;2023-04-03T01:36:40;4.57;;;2.13;;
55455;SDS011;63021;52.836;6.376;2023-04-03T01:39:06;4.53;;;2.10;;
55455;SDS011;63021;52.836;6.376;2023-04-03T01:41:31;2.13;;;1.92;;
55455;SDS011;63021;52.836;6.376;2023-04-03T01:43:57;4.30;;;1.60;;
55455;SDS011;63021;52.836;6.376;2023-04-03T01:46:22;2.00;;;1.90;;
55455;SDS011;63021;52.836;6.376;2023-04-03T01:48:48;5.20;;;1.95;;
55455;SDS011;63021;52.836;6.376;2023-04-03T01:51:13;2.75;;;2.50;;
55455;SDS011;63021;52.836;6.376;2023-04-03T01:53:39;2.42;;;2.22;;
55455;SDS011;63021;52.836;6.376;2023-04-03T01:56:04;2.13;;;1.92;;
55455;SDS011;63021;52.836;6.376;2023-04-03T01:58:30;2.08;;;1.98;;
55455;SDS011;63021;52.836;6.376;2023-04-03T02:00:55;3.35;;;2.05;;
55455;SDS011;63021;52.836;6.376;2023-04-03T02:03:21;2.00;;;1.90;;
55455;SDS011;63021;52.836;6.376;2023-04-03T02:05:47;3.10;;;1.80;;
55455;SDS011;63021;52.836;6.376;2023-04-03T02:08:12;3.72;;;1.83;;
55455;SDS011;63021;52.836;6.376;2023-04-03T02:10:38;2.08;;;1.77;;
55455;SDS011;63021;52.836;6.376;2023-04-03T02:13:04;3.53;;;2.33;;
55455;SDS011;63021;52.836;6.376;2023-04-03T02:15:29;2.03;;;1.80;;
55455;SDS011;63021;52.836;6.376;2023-04-03T02:17:55;2.60;;;2.40;;
55455;SDS011;63021;52.836;6.376;2023-04-03T02:20:20;2.58;;;1.60;;
55455;SDS011;63021;52.836;6.376;2023-04-03T02:22:46;3.38;;;2.05;;
55455;SDS011;63021;52.836;6.376;2023-04-03T02:25:11;2.17;;;2.08;;
55455;SDS011;63021;52.836;6.376;2023-04-03T02:27:37;3.53;;;1.90;;
55455;SDS011;63021;52.836;6.376;2023-04-03T02:30:03;2.63;;;1.95;;
55455;SDS011;63021;52.836;6.376;2023-04-03T02:32:30;2.92;;;1.90;;
55455;SDS011;63021;52.836;6.376;2023-04-03T02:34:55;3.60;;;2.22;;
55455;SDS011;63021;52.836;6.376;2023-04-03T02:37:21;2.70;;;2.30;;
55455;SDS011;63021;52.836;6.376;2023-04-03T02:39:47;2.63;;;2.17;;
55455;SDS011;63021;52.836;6.376;2023-04-03T02:42:12;2.20;;;2.00;;
55455;SDS011;63021;52.836;6.376;2023-04-03T02:44:37;3.45;;;1.83;;
55455;SDS011;63021;52.836;6.376;2023-04-03T02:47:04;2.47;;;1.85;;
55455;SDS011;63021;52.836;6.376;2023-04-03T02:49:30;3.53;;;2.58;;
55455;SDS011;63021;52.836;6.376;2023-04-03T02:51:55;2.78;;;2.00;;
55455;SDS011;63021;52.836;6.376;2023-04-03T02:54:21;3.45;;;2.22;;
55455;SDS011;63021;52.836;6.376;2023-04-03T02:56:48;2.50;;;1.98;;
55455;SDS011;63021;52.836;6.376;2023-04-03T02:59:14;3.30;;;1.92;;
55455;SDS011;63021;52.836;6.376;2023-04-03T03:01:39;2.78;;;1.50;;
55455;SDS011;63021;52.836;6.376;2023-04-03T03:04:05;4.85;;;2.20;;
55455;SDS011;63021;52.836;6.376;2023-04-03T03:06:30;2.70;;;1.75;;
55455;SDS011;63021;52.836;6.376;2023-04-03T03:08:55;3.55;;;2.45;;
55455;SDS011;63021;52.836;6.376;2023-04-03T03:11:21;2.40;;;1.85;;
55455;SDS011;63021;52.836;6.376;2023-04-03T03:13:46;3.75;;;1.88;;
55455;SDS011;63021;52.836;6.376;2023-04-03T03:16:12;2.97;;;2.15;;
55455;SDS011;63021;52.836;6.376;2023-04-03T03:18:37;3.05;;;2.28;;
55455;SDS011;63021;52.836;6.376;2023-04-03T03:21:03;2.53;;;1.95;;
55455;SDS011;63021;52.836;6.376;2023-04-03T03:23:29;3.03;;;1.85;;
55455;SDS011;63021;52.836;6.376;2023-04-03T03:25:57;3.70;;;2.30;;
55455;SDS011;63021;52.836;6.376;2023-04-03T03:28:25;3.85;;;2.20;;
55455;SDS011;63021;52.836;6.376;2023-04-03T03:30:50;2.50;;;2.40;;
55455;SDS011;63021;52.836;6.376;2023-04-03T03:33:16;5.00;;;2.50;;
55455;SDS011;63021;52.836;6.376;2023-04-03T03:35:42;4.90;;;2.70;;
55455;SDS011;63021;52.836;6.376;2023-04-03T03:38:08;2.58;;;2.15;;
55455;SDS011;63021;52.836;6.376;2023-04-03T03:40:34;2.25;;;2.03;;
55455;SDS011;63021;52.836;6.376;2023-04-03T03:42:59;2.55;;;2.03;;
55455;SDS011;63021;52.836;6.376;2023-04-03T03:45:24;5.55;;;2.50;;
55455;SDS011;63021;52.836;6.376;2023-04-03T03:47:50;2.22;;;1.92;;
55455;SDS011;63021;52.836;6.376;2023-04-03T03:50:15;2.58;;;2.08;;
55455;SDS011;63021;52.836;6.376;2023-04-03T03:52:41;3.95;;;2.08;;
55455;SDS011;63021;52.836;6.376;2023-04-03T03:55:06;3.15;;;2.05;;
55455;SDS011;63021;52.836;6.376;2023-04-03T03:57:32;4.75;;;2.63;;
55455;SDS011;63021;52.836;6.376;2023-04-03T03:59:57;3.97;;;2.30;;
55455;SDS011;63021;52.836;6.376;2023-04-03T04:02:23;6.38;;;2.15;;
55455;SDS011;63021;52.836;6.376;2023-04-03T04:04:48;6.50;;;3.55;;
55455;SDS011;63021;52.836;6.376;2023-04-03T04:07:14;6.55;;;2.10;;
55455;SDS011;63021;52.836;6.376;2023-04-03T04:09:39;6.38;;;2.30;;
55455;SDS011;63021;52.836;6.376;2023-04-03T04:12:04;2.30;;;2.10;;
55455;SDS011;63021;52.836;6.376;2023-04-03T04:14:30;5.30;;;2.60;;
55455;SDS011;63021;52.836;6.376;2023-04-03T04:16:56;4.93;;;2.47;;
55455;SDS011;63021;52.836;6.376;2023-04-03T04:19:21;4.38;;;1.90;;
55455;SDS011;63021;52.836;6.376;2023-04-03T04:21:47;4.13;;;2.20;;
55455;SDS011;63021;52.836;6.376;2023-04-03T04:24:12;3.30;;;2.33;;
55455;SDS011;63021;52.836;6.376;2023-04-03T04:26:37;4.72;;;2.75;;
55455;SDS011;63021;52.836;6.376;2023-04-03T04:29:03;5.43;;;2.33;;
55455;SDS011;63021;52.836;6.376;2023-04-03T04:31:28;2.42;;;2.22;;
55455;SDS011;63021;52.836;6.376;2023-04-03T04:33:54;6.43;;;2.30;;
55455;SDS011;63021;52.836;6.376;2023-04-03T04:36:19;5.00;;;2.28;;
55455;SDS011;63021;52.836;6.376;2023-04-03T04:38:44;2.67;;;1.80;;
55455;SDS011;63021;52.836;6.376;2023-04-03T04:41:10;3.42;;;2.10;;
55455;SDS011;63021;52.836;6.376;2023-04-03T04:43:35;5.80;;;2.30;;
55455;SDS011;63021;52.836;6.376;2023-04-03T04:46:05;6.60;;;2.50;;
55455;SDS011;63021;52.836;6.376;2023-04-03T04:48:34;4.55;;;2.38;;
55455;SDS011;63021;52.836;6.376;2023-04-03T04:51:00;5.10;;;2.45;;
55455;SDS011;63021;52.836;6.376;2023-04-03T04:53:26;9.02;;;2.80;;
55455;SDS011;63021;52.836;6.376;2023-04-03T04:55:52;6.85;;;2.67;;
55455;SDS011;63021;52.836;6.376;2023-04-03T04:58:17;4.35;;;2.13;;
55455;SDS011;63021;52.836;6.376;2023-04-03T05:00:43;2.70;;;2.50;;
55455;SDS011;63021;52.836;6.376;2023-04-03T05:03:09;3.65;;;2.65;;
55455;SDS011;63021;52.836;6.376;2023-04-03T05:05:34;3.28;;;2.72;;
55455;SDS011;63021;52.836;6.376;2023-04-03T05:08:00;4.30;;;3.22;;
55455;SDS011;63021;52.836;6.376;2023-04-03T05:10:26;3.05;;;2.72;;
55455;SDS011;63021;52.836;6.376;2023-04-03T05:12:51;7.30;;;2.88;;
55455;SDS011;63021;52.836;6.376;2023-04-03T05:15:16;4.25;;;2.50;;
55455;SDS011;63021;52.836;6.376;2023-04-03T05:17:42;2.58;;;2.25;;
55455;SDS011;63021;52.836;6.376;2023-04-03T05:20:07;4.53;;;2.50;;
55455;SDS011;63021;52.836;6.376;2023-04-03T05:22:33;4.00;;;2.83;;
55455;SDS011;63021;52.836;6.376;2023-04-03T05:24:59;7.93;;;2.58;;
55455;SDS011;63021;52.836;6.376;2023-04-03T05:27:25;6.22;;;3.10;;
55455;SDS011;63021;52.836;6.376;2023-04-03T05:29:53;5.20;;;2.53;;
55455;SDS011;63021;52.836;6.376;2023-04-03T05:32:22;5.70;;;3.33;;
55455;SDS011;63021;52.836;6.376;2023-04-03T05:34:48;3.35;;;3.00;;
55455;SDS011;63021;52.836;6.376;2023-04-03T05:37:13;5.70;;;2.28;;
55455;SDS011;63021;52.836;6.376;2023-04-03T05:39:39;7.93;;;2.75;;
55455;SDS011;63021;52.836;6.376;2023-04-03T05:42:06;4.82;;;2.80;;
55455;SDS011;63021;52.836;6.376;2023-04-03T05:44:34;5.68;;;2.40;;
55455;SDS011;63021;52.836;6.376;2023-04-03T05:47:00;5.25;;;2.60;;
55455;SDS011;63021;52.836;6.376;2023-04-03T05:49:26;5.18;;;2.50;;
55455;SDS011;63021;52.836;6.376;2023-04-03T05:51:51;6.97;;;2.35;;
55455;SDS011;63021;52.836;6.376;2023-04-03T05:54:24;7.15;;;2.60;;
55455;SDS011;63021;52.836;6.376;2023-04-03T05:56:51;4.70;;;2.70;;
55455;SDS011;63021;52.836;6.376;2023-04-03T05:59:16;4.30;;;2.53;;
55455;SDS011;63021;52.836;6.376;2023-04-03T06:01:43;2.65;;;2.45;;
55455;SDS011;63021;52.836;6.376;2023-04-03T06:04:08;7.10;;;3.08;;
55455;SDS011;63021;52.836;6.376;2023-04-03T06:09:14;7.45;;;3.28;;
55455;SDS011;63021;52.836;6.376;2023-04-03T06:11:40;4.70;;;3.00;;
55455;SDS011;63021;52.836;6.376;2023-04-03T06:14:06;5.25;;;3.20;;
55455;SDS011;63021;52.836;6.376;2023-04-03T06:16:33;6.40;;;3.15;;
55455;SDS011;63021;52.836;6.376;2023-04-03T06:18:58;4.13;;;3.47;;
55455;SDS011;63021;52.836;6.376;2023-04-03T06:21:24;6.32;;;3.70;;
55455;SDS011;63021;52.836;6.376;2023-04-03T06:23:49;6.30;;;2.78;;
55455;SDS011;63021;52.836;6.376;2023-04-03T06:26:16;7.97;;;3.65;;
55455;SDS011;63021;52.836;6.376;2023-04-03T06:28:42;6.20;;;3.30;;
55455;SDS011;63021;52.836;6.376;2023-04-03T06:31:08;7.28;;;3.63;;
55455;SDS011;63021;52.836;6.376;2023-04-03T06:33:33;6.30;;;3.20;;
55455;SDS011;63021;52.836;6.376;2023-04-03T06:35:59;7.57;;;4.60;;
55455;SDS011;63021;52.836;6.376;2023-04-03T06:38:28;4.47;;;2.88;;
55455;SDS011;63021;52.836;6.376;2023-04-03T06:40:54;4.22;;;2.95;;
55455;SDS011;63021;52.836;6.376;2023-04-03T06:43:20;6.60;;;3.10;;
55455;SDS011;63021;52.836;6.376;2023-04-03T06:45:46;6.05;;;2.35;;
55455;SDS011;63021;52.836;6.376;2023-04-03T06:48:12;3.40;;;2.38;;
55455;SDS011;63021;52.836;6.376;2023-04-03T06:50:38;3.75;;;2.50;;
55455;SDS011;63021;52.836;6.376;2023-04-03T06:53:04;5.70;;;2.45;;
55455;SDS011;63021;52.836;6.376;2023-04-03T06:55:30;7.00;;;2.28;;
55455;SDS011;63021;52.836;6.376;2023-04-03T06:57:56;5.85;;;2.70;;
55455;SDS011;63021;52.836;6.376;2023-04-03T07:00:22;2.80;;;2.10;;
55455;SDS011;63021;52.836;6.376;2023-04-03T07:02:47;7.45;;;2.42;;
55455;SDS011;63021;52.836;6.376;2023-04-03T07:05:13;9.95;;;2.50;;
55455;SDS011;63021;52.836;6.376;2023-04-03T07:07:38;5.47;;;2.10;;
55455;SDS011;63021;52.836;6.376;2023-04-03T07:10:05;7.72;;;2.25;;
55455;SDS011;63021;52.836;6.376;2023-04-03T07:12:31;9.75;;;2.55;;
55455;SDS011;63021;52.836;6.376;2023-04-03T07:14:57;6.93;;;1.90;;
55455;SDS011;63021;52.836;6.376;2023-04-03T07:17:22;6.15;;;2.30;;
55455;SDS011;63021;52.836;6.376;2023-04-03T07:19:47;4.43;;;2.03;;
55455;SDS011;63021;52.836;6.376;2023-04-03T07:22:13;4.65;;;2.05;;
55455;SDS011;63021;52.836;6.376;2023-04-03T07:24:38;4.38;;;1.90;;
55455;SDS011;63021;52.836;6.376;2023-04-03T07:27:04;5.15;;;2.22;;
55455;SDS011;63021;52.836;6.376;2023-04-03T07:29:29;6.32;;;1.80;;
55455;SDS011;63021;52.836;6.376;2023-04-03T07:31:55;7.53;;;2.15;;
55455;SDS011;63021;52.836;6.376;2023-04-03T07:34:21;5.57;;;2.03;;
55455;SDS011;63021;52.836;6.376;2023-04-03T07:36:46;3.00;;;2.20;;
55455;SDS011;63021;52.836;6.376;2023-04-03T07:39:12;6.28;;;2.03;;
55455;SDS011;63021;52.836;6.376;2023-04-03T07:41:37;3.58;;;1.80;;
55455;SDS011;63021;52.836;6.376;2023-04-03T07:44:03;10.48;;;2.15;;
55455;SDS011;63021;52.836;6.376;2023-04-03T07:46:30;4.57;;;1.70;;
55455;SDS011;63021;52.836;6.376;2023-04-03T07:48:56;3.17;;;1.70;;
55455;SDS011;63021;52.836;6.376;2023-04-03T07:51:21;3.63;;;1.83;;
55455;SDS011;63021;52.836;6.376;2023-04-03T07:53:47;2.58;;;1.92;;
55455;SDS011;63021;52.836;6.376;2023-04-03T07:56:13;6.65;;;2.10;;
55455;SDS011;63021;52.836;6.376;2023-04-03T07:58:38;4.43;;;2.08;;
55455;SDS011;63021;52.836;6.376;2023-04-03T08:01:04;5.93;;;2.65;;
55455;SDS011;63021;52.836;6.376;2023-04-03T08:03:29;6.13;;;2.38;;
55455;SDS011;63021;52.836;6.376;2023-04-03T08:05:55;3.95;;;2.33;;
55455;SDS011;63021;52.836;6.376;2023-04-03T08:08:28;6.72;;;2.35;;
55455;SDS011;63021;52.836;6.376;2023-04-03T08:10:55;3.67;;;1.70;;
55455;SDS011;63021;52.836;6.376;2023-04-03T08:13:21;4.97;;;2.10;;
55455;SDS011;63021;52.836;6.376;2023-04-03T08:15:47;5.20;;;1.70;;
55455;SDS011;63021;52.836;6.376;2023-04-03T08:18:13;4.35;;;1.88;;
55455;SDS011;63021;52.836;6.376;2023-04-03T08:20:42;5.60;;;1.70;;
55455;SDS011;63021;52.836;6.376;2023-04-03T08:23:08;6.25;;;1.83;;
55455;SDS011;63021;52.836;6.376;2023-04-03T08:25:37;5.10;;;1.60;;
55455;SDS011;63021;52.836;6.376;2023-04-03T08:28:04;3.25;;;1.50;;
55455;SDS011;63021;52.836;6.376;2023-04-03T08:30:29;5.53;;;2.38;;
55455;SDS011;63021;52.836;6.376;2023-04-03T08:32:56;2.85;;;1.58;;
55455;SDS011;63021;52.836;6.376;2023-04-03T08:35:21;6.88;;;1.70;;
55455;SDS011;63021;52.836;6.376;2023-04-03T08:37:46;3.60;;;2.00;;
55455;SDS011;63021;52.836;6.376;2023-04-03T08:40:15;2.33;;;2.10;;
55455;SDS011;63021;52.836;6.376;2023-04-03T08:42:54;1.70;;;1.55;;
55455;SDS011;63021;52.836;6.376;2023-04-03T08:48:15;2.38;;;1.40;;
55455;SDS011;63021;52.836;6.376;2023-04-03T08:50:46;5.53;;;1.60;;
55455;SDS011;63021;52.836;6.376;2023-04-03T08:53:15;5.07;;;1.95;;
55455;SDS011;63021;52.836;6.376;2023-04-03T08:55:46;1.92;;;1.80;;
55455;SDS011;63021;52.836;6.376;2023-04-03T08:58:16;3.38;;;1.60;;
55455;SDS011;63021;52.836;6.376;2023-04-03T09:01:03;3.80;;;2.15;;
55455;SDS011;63021;52.836;6.376;2023-04-03T09:03:43;3.53;;;2.38;;
55455;SDS011;63021;52.836;6.376;2023-04-03T09:06:13;2.33;;;1.27;;
55455;SDS011;63021;52.836;6.376;2023-04-03T09:08:45;1.83;;;1.30;;
55455;SDS011;63021;52.836;6.376;2023-04-03T09:13:59;2.15;;;1.30;;
55455;SDS011;63021;52.836;6.376;2023-04-03T09:19:26;2.72;;;1.10;;
55455;SDS011;63021;52.836;6.376;2023-04-03T09:24:27;1.92;;;1.20;;
55455;SDS011;63021;52.836;6.376;2023-04-03T09:26:59;6.45;;;2.55;;
55455;SDS011;63021;52.836;6.376;2023-04-03T09:29:29;4.95;;;1.30;;
55455;SDS011;63021;52.836;6.376;2023-04-03T09:32:02;2.05;;;1.23;;
55455;SDS011;63021;52.836;6.376;2023-04-03T09:34:37;2.55;;;1.10;;
55455;SDS011;63021;52.836;6.376;2023-04-03T09:37:07;1.40;;;1.30;;
55455;SDS011;63021;52.836;6.376;2023-04-03T09:39:50;1.40;;;1.17;;
55455;SDS011;63021;52.836;6.376;2023-04-03T09:42:19;2.78;;;1.48;;
55455;SDS011;63021;52.836;6.376;2023-04-03T09:44:53;2.88;;;1.38;;
55455;SDS011;63021;52.836;6.376;2023-04-03T09:52:38;1.88;;;1.00;;
55455;SDS011;63021;52.836;6.376;2023-04-03T09:55:17;1.60;;;1.20;;
55455;SDS011;63021;52.836;6.376;2023-04-03T09:57:51;4.00;;;1.20;;
55455;SDS011;63021;52.836;6.376;2023-04-03T10:00:22;2.67;;;1.02;;
55455;SDS011;63021;52.836;6.376;2023-04-03T10:02:54;1.52;;;1.40;;
55455;SDS011;63021;52.836;6.376;2023-04-03T10:05:36;2.92;;;1.20;;
55455;SDS011;63021;52.836;6.376;2023-04-03T10:08:23;1.48;;;1.00;;
55455;SDS011;63021;52.836;6.376;2023-04-03T10:11:04;3.22;;;1.00;;
55455;SDS011;63021;52.836;6.376;2023-04-03T10:13:32;2.55;;;1.05;;
55455;SDS011;63021;52.836;6.376;2023-04-03T10:16:08;1.20;;;0.80;;
55455;SDS011;63021;52.836;6.376;2023-04-03T10:23:53;1.88;;;1.17;;
55455;SDS011;63021;52.836;6.376;2023-04-03T10:29:36;1.17;;;1.10;;
55455;SDS011;63021;52.836;6.376;2023-04-03T10:35:07;1.63;;;1.42;;
55455;SDS011;63021;52.836;6.376;2023-04-03T10:43:15;1.02;;;1.00;;
55455;SDS011;63021;52.836;6.376;2023-04-03T10:57:01;4.30;;;1.05;;
55455;SDS011;63021;52.836;6.376;2023-04-03T10:59:30;6.07;;;1.10;;
55455;SDS011;63021;52.836;6.376;2023-04-03T11:02:03;1.20;;;0.88;;
55455;SDS011;63021;52.836;6.376;2023-04-03T11:04:34;1.33;;;1.00;;
55455;SDS011;63021;52.836;6.376;2023-04-03T11:09:44;1.17;;;1.00;;
55455;SDS011;63021;52.836;6.376;2023-04-03T11:12:15;1.67;;;1.08;;
55455;SDS011;63021;52.836;6.376;2023-04-03T11:14:46;2.55;;;0.90;;
55455;SDS011;63021;52.836;6.376;2023-04-03T11:17:19;1.40;;;0.80;;
55455;SDS011;63021;52.836;6.376;2023-04-03T11:22:43;1.30;;;0.80;;
55455;SDS011;63021;52.836;6.376;2023-04-03T11:25:15;1.55;;;1.20;;
55455;SDS011;63021;52.836;6.376;2023-04-03T11:27:58;0.90;;;0.90;;
55455;SDS011;63021;52.836;6.376;2023-04-03T11:35:45;1.65;;;1.17;;
55455;SDS011;63021;52.836;6.376;2023-04-03T11:38:23;3.25;;;1.30;;
55455;SDS011;63021;52.836;6.376;2023-04-03T11:40:54;2.65;;;1.52;;
55455;SDS011;63021;52.836;6.376;2023-04-03T11:43:26;4.88;;;1.38;;
55455;SDS011;63021;52.836;6.376;2023-04-03T11:45:55;2.33;;;1.20;;
55455;SDS011;63021;52.836;6.376;2023-04-03T11:50:57;2.17;;;1.05;;
55455;SDS011;63021;52.836;6.376;2023-04-03T11:53:46;1.25;;;1.10;;
55455;SDS011;63021;52.836;6.376;2023-04-03T12:01:46;1.25;;;1.10;;
55455;SDS011;63021;52.836;6.376;2023-04-03T12:04:23;4.50;;;1.20;;
55455;SDS011;63021;52.836;6.376;2023-04-03T12:06:53;2.03;;;1.08;;
55455;SDS011;63021;52.836;6.376;2023-04-03T12:14:54;2.75;;;0.98;;
55455;SDS011;63021;52.836;6.376;2023-04-03T12:17:23;2.33;;;1.20;;
55455;SDS011;63021;52.836;6.376;2023-04-03T12:19:51;2.72;;;1.23;;
55455;SDS011;63021;52.836;6.376;2023-04-03T12:22:18;3.70;;;1.35;;
55455;SDS011;63021;52.836;6.376;2023-04-03T12:24:49;2.28;;;1.15;;
55455;SDS011;63021;52.836;6.376;2023-04-03T12:27:49;2.83;;;1.33;;
55455;SDS011;63021;52.836;6.376;2023-04-03T12:30:15;2.03;;;1.17;;
55455;SDS011;63021;52.836;6.376;2023-04-03T12:32:48;2.42;;;1.60;;
55455;SDS011;63021;52.836;6.376;2023-04-03T12:35:26;2.83;;;1.27;;
55455;SDS011;63021;52.836;6.376;2023-04-03T12:46:24;2.83;;;1.23;;
55455;SDS011;63021;52.836;6.376;2023-04-03T12:48:58;1.17;;;1.08;;
55455;SDS011;63021;52.836;6.376;2023-04-03T12:51:41;2.80;;;1.25;;
55455;SDS011;63021;52.836;6.376;2023-04-03T12:57:18;2.25;;;1.20;;
55455;SDS011;63021;52.836;6.376;2023-04-03T12:59:45;2.03;;;0.98;;
55455;SDS011;63021;52.836;6.376;2023-04-03T13:02:30;1.40;;;1.20;;
55455;SDS011;63021;52.836;6.376;2023-04-03T13:04:59;1.90;;;1.15;;
55455;SDS011;63021;52.836;6.376;2023-04-03T13:07:33;1.20;;;1.10;;
55455;SDS011;63021;52.836;6.376;2023-04-03T13:12:31;2.55;;;1.08;;
55455;SDS011;63021;52.836;6.376;2023-04-03T13:14:58;1.10;;;1.00;;
55455;SDS011;63021;52.836;6.376;2023-04-03T13:17:29;1.58;;;1.17;;
55455;SDS011;63021;52.836;6.376;2023-04-03T13:19:54;1.98;;;1.33;;
55455;SDS011;63021;52.836;6.376;2023-04-03T13:24:59;2.20;;;0.90;;
55455;SDS011;63021;52.836;6.376;2023-04-03T13:27:31;2.55;;;1.15;;
55455;SDS011;63021;52.836;6.376;2023-04-03T13:29:58;1.75;;;1.10;;
55455;SDS011;63021;52.836;6.376;2023-04-03T13:32:26;5.32;;;1.33;;
55455;SDS011;63021;52.836;6.376;2023-04-03T13:34:54;2.58;;;1.10;;
55455;SDS011;63021;52.836;6.376;2023-04-03T13:37:24;3.88;;;1.50;;
55455;SDS011;63021;52.836;6.376;2023-04-03T13:42:32;1.75;;;1.10;;
55455;SDS011;63021;52.836;6.376;2023-04-03T13:47:41;3.55;;;1.40;;
55455;SDS011;63021;52.836;6.376;2023-04-03T13:50:16;4.47;;;1.50;;
55455;SDS011;63021;52.836;6.376;2023-04-03T13:55:24;1.65;;;1.33;;
55455;SDS011;63021;52.836;6.376;2023-04-03T13:58:03;3.38;;;1.65;;
55455;SDS011;63021;52.836;6.376;2023-04-03T14:05:46;3.70;;;1.35;;
55455;SDS011;63021;52.836;6.376;2023-04-03T14:08:12;1.73;;;1.40;;
55455;SDS011;63021;52.836;6.376;2023-04-03T14:10:37;2.92;;;1.23;;
55455;SDS011;63021;52.836;6.376;2023-04-03T14:13:03;1.75;;;1.55;;
55455;SDS011;63021;52.836;6.376;2023-04-03T14:15:30;2.65;;;1.73;;
55455;SDS011;63021;52.836;6.376;2023-04-03T14:17:56;3.80;;;1.45;;
55455;SDS011;63021;52.836;6.376;2023-04-03T14:20:23;1.73;;;1.25;;
55455;SDS011;63021;52.836;6.376;2023-04-03T14:22:51;3.80;;;1.85;;
55455;SDS011;63021;52.836;6.376;2023-04-03T14:25:17;1.33;;;1.20;;
55455;SDS011;63021;52.836;6.376;2023-04-03T14:27:47;3.33;;;1.33;;
55455;SDS011;63021;52.836;6.376;2023-04-03T14:32:58;4.40;;;1.83;;
55455;SDS011;63021;52.836;6.376;2023-04-03T14:35:25;1.85;;;1.42;;
55455;SDS011;63021;52.836;6.376;2023-04-03T14:37:52;1.30;;;1.20;;
55455;SDS011;63021;52.836;6.376;2023-04-03T14:40:23;1.75;;;1.45;;
55455;SDS011;63021;52.836;6.376;2023-04-03T14:42:50;2.28;;;1.40;;
55455;SDS011;63021;52.836;6.376;2023-04-03T14:45:20;2.63;;;1.50;;
55455;SDS011;63021;52.836;6.376;2023-04-03T14:47:47;3.55;;;1.60;;
55455;SDS011;63021;52.836;6.376;2023-04-03T14:50:16;4.25;;;1.73;;
55455;SDS011;63021;52.836;6.376;2023-04-03T14:52:53;3.33;;;1.67;;
55455;SDS011;63021;52.836;6.376;2023-04-03T14:55:22;4.15;;;1.30;;
55455;SDS011;63021;52.836;6.376;2023-04-03T14:57:48;2.17;;;1.50;;
55455;SDS011;63021;52.836;6.376;2023-04-03T15:00:18;1.77;;;1.38;;
55455;SDS011;63021;52.836;6.376;2023-04-03T15:02:46;3.00;;;1.40;;
55455;SDS011;63021;52.836;6.376;2023-04-03T15:05:12;3.33;;;1.75;;
55455;SDS011;63021;52.836;6.376;2023-04-03T15:07:40;1.88;;;1.58;;
55455;SDS011;63021;52.836;6.376;2023-04-03T15:12:47;2.63;;;1.70;;
55455;SDS011;63021;52.836;6.376;2023-04-03T15:15:14;3.90;;;1.92;;
55455;SDS011;63021;52.836;6.376;2023-04-03T15:17:41;2.85;;;1.50;;
55455;SDS011;63021;52.836;6.376;2023-04-03T15:20:17;5.05;;;2.05;;
55455;SDS011;63021;52.836;6.376;2023-04-03T15:22:45;3.15;;;1.50;;
55455;SDS011;63021;52.836;6.376;2023-04-03T15:25:10;3.08;;;1.50;;
55455;SDS011;63021;52.836;6.376;2023-04-03T15:27:39;3.33;;;1.85;;
55455;SDS011;63021;52.836;6.376;2023-04-03T15:30:06;2.80;;;1.67;;
55455;SDS011;63021;52.836;6.376;2023-04-03T15:32:32;1.65;;;1.20;;
55455;SDS011;63021;52.836;6.376;2023-04-03T15:34:59;4.50;;;2.20;;
55455;SDS011;63021;52.836;6.376;2023-04-03T15:37:25;4.97;;;2.03;;
55455;SDS011;63021;52.836;6.376;2023-04-03T15:39:50;3.85;;;2.33;;
55455;SDS011;63021;52.836;6.376;2023-04-03T15:42:16;3.42;;;2.00;;
55455;SDS011;63021;52.836;6.376;2023-04-03T15:44:41;4.55;;;1.73;;
55455;SDS011;63021;52.836;6.376;2023-04-03T15:47:06;1.98;;;1.40;;
55455;SDS011;63021;52.836;6.376;2023-04-03T15:49:33;2.90;;;1.65;;
55455;SDS011;63021;52.836;6.376;2023-04-03T15:51:59;1.98;;;1.88;;
55455;SDS011;63021;52.836;6.376;2023-04-03T15:54:25;1.63;;;1.38;;
55455;SDS011;63021;52.836;6.376;2023-04-03T15:56:51;1.60;;;1.33;;
55455;SDS011;63021;52.836;6.376;2023-04-03T15:59:17;3.28;;;1.35;;
55455;SDS011;63021;52.836;6.376;2023-04-03T16:01:43;4.40;;;1.42;;
55455;SDS011;63021;52.836;6.376;2023-04-03T16:04:09;1.35;;;1.25;;
55455;SDS011;63021;52.836;6.376;2023-04-03T16:06:35;1.50;;;1.40;;
55455;SDS011;63021;52.836;6.376;2023-04-03T16:09:02;1.65;;;1.55;;
55455;SDS011;63021;52.836;6.376;2023-04-03T16:11:28;3.00;;;1.45;;
55455;SDS011;63021;52.836;6.376;2023-04-03T16:13:54;4.43;;;1.75;;
55455;SDS011;63021;52.836;6.376;2023-04-03T16:16:19;3.65;;;1.98;;
55455;SDS011;63021;52.836;6.376;2023-04-03T16:18:45;1.75;;;1.40;;
55455;SDS011;63021;52.836;6.376;2023-04-03T16:21:12;4.18;;;1.60;;
55455;SDS011;63021;52.836;6.376;2023-04-03T16:23:39;3.55;;;1.48;;
55455;SDS011;63021;52.836;6.376;2023-04-03T16:26:05;2.20;;;1.58;;
55455;SDS011;63021;52.836;6.376;2023-04-03T16:28:30;1.40;;;1.30;;
55455;SDS011;63021;52.836;6.376;2023-04-03T16:30:56;2.83;;;1.30;;
55455;SDS011;63021;52.836;6.376;2023-04-03T16:33:22;2.28;;;1.40;;
55455;SDS011;63021;52.836;6.376;2023-04-03T16:35:48;1.95;;;1.48;;
55455;SDS011;63021;52.836;6.376;2023-04-03T16:38:14;1.27;;;1.17;;
55455;SDS011;63021;52.836;6.376;2023-04-03T16:40:40;2.85;;;2.08;;
55455;SDS011;63021;52.836;6.376;2023-04-03T16:43:06;2.78;;;1.60;;
55455;SDS011;63021;52.836;6.376;2023-04-03T16:45:32;5.50;;;1.80;;
55455;SDS011;63021;52.836;6.376;2023-04-03T16:47:58;1.65;;;1.55;;